sensor_id;sensor_type;location;lat;lon;timestamp;pressure;altitude;pressure_sealevel;temperature;humidity
85140;BME280;75501;52.586;13.284;2024-01-25T00:00:42;101083.56;;;7.99;65.48
85140;BME280;75501;52.586;13.284;2024-01-25T00:03:12;101079.25;;;7.88;65.82
85140;BME280;75501;52.586;13.284;2024-01-25T00:05:47;101109.03;;;7.93;66.23
85140;BME280;75501;52.586;13.284;2024-01-25T00:08:16;101094.41;;;7.89;66.40
85140;BME280;75501;52.586;13.284;2024-01-25T00:10:44;101101.19;;;7.91;66.45
85140;BME280;75501;52.586;13.284;2024-01-25T00:13:14;101055.47;;;7.65;66.18
85140;BME280;75501;52.586;13.284;2024-01-25T00:15:46;101068.16;;;7.69;66.52
85140;BME280;75501;52.586;13.284;2024-01-25T00:18:19;101076.56;;;7.78;66.79
85140;BME280;75501;52.586;13.284;2024-01-25T00:20:47;101106.34;;;7.83;67.33
85140;BME280;75501;52.586;13.284;2024-01-25T00:23:18;101053.31;;;7.46;67.14
85140;BME280;75501;52.586;13.284;2024-01-25T00:25:53;101076.31;;;7.54;67.75
85140;BME280;75501;52.586;13.284;2024-01-25T00:28:28;101097.41;;;7.77;67.12
85140;BME280;75501;52.586;13.284;2024-01-25T00:30:57;101075.75;;;7.62;66.99
85140;BME280;75501;52.586;13.284;2024-01-25T00:33:29;101115.56;;;7.82;66.99
85140;BME280;75501;52.586;13.284;2024-01-25T00:36:00;101090.38;;;7.66;66.71
85140;BME280;75501;52.586;13.284;2024-01-25T00:38:33;101135.03;;;7.84;67.13
85140;BME280;75501;52.586;13.284;2024-01-25T00:41:07;101152.66;;;7.86;67.33
85140;BME280;75501;52.586;13.284;2024-01-25T00:43:44;101155.91;;;7.93;67.29
85140;BME280;75501;52.586;13.284;2024-01-25T00:46:17;101149.16;;;7.86;67.22
85140;BME280;75501;52.586;13.284;2024-01-25T00:48:47;101139.94;;;7.82;67.25
85140;BME280;75501;52.586;13.284;2024-01-25T00:51:24;101106.63;;;7.56;66.92
85140;BME280;75501;52.586;13.284;2024-01-25T00:54:01;101156.72;;;7.74;67.15
85140;BME280;75501;52.586;13.284;2024-01-25T00:56:33;101155.63;;;7.85;67.67
85140;BME280;75501;52.586;13.284;2024-01-25T00:59:02;101156.44;;;7.85;67.28
85140;BME280;75501;52.586;13.284;2024-01-25T01:01:31;101158.34;;;7.85;66.95
85140;BME280;75501;52.586;13.284;2024-01-25T01:04:01;101174.88;;;7.78;67.05
85140;BME280;75501;52.586;13.284;2024-01-25T01:06:31;101174.84;;;7.83;67.02
85140;BME280;75501;52.586;13.284;2024-01-25T01:09:06;101170.25;;;7.84;66.88
85140;BME280;75501;52.586;13.284;2024-01-25T01:11:34;101172.44;;;7.82;67.15
85140;BME280;75501;52.586;13.284;2024-01-25T01:14:04;101181.09;;;7.84;66.85
85140;BME280;75501;52.586;13.284;2024-01-25T01:16:34;101192.75;;;7.84;66.96
85140;BME280;75501;52.586;13.284;2024-01-25T01:19:04;101190.59;;;7.86;67.08
85140;BME280;75501;52.586;13.284;2024-01-25T01:21:37;101179.47;;;7.73;67.16
85140;BME280;75501;52.586;13.284;2024-01-25T01:24:12;101193.03;;;7.78;66.92
85140;BME280;75501;52.586;13.284;2024-01-25T01:26:44;101150.47;;;7.58;66.89
85140;BME280;75501;52.586;13.284;2024-01-25T01:29:17;101176.22;;;7.86;66.80
85140;BME280;75501;52.586;13.284;2024-01-25T01:31:56;101172.44;;;7.92;66.68
85140;BME280;75501;52.586;13.284;2024-01-25T01:34:36;101174.59;;;7.85;67.04
85140;BME280;75501;52.586;13.284;2024-01-25T01:37:17;101162.41;;;7.52;67.04
85140;BME280;75501;52.586;13.284;2024-01-25T01:39:49;101180.00;;;7.85;66.57
85140;BME280;75501;52.586;13.284;2024-01-25T01:42:20;101154.00;;;7.59;66.57
85140;BME280;75501;52.586;13.284;2024-01-25T01:44:52;101168.09;;;7.61;67.17
85140;BME280;75501;52.586;13.284;2024-01-25T01:47:20;101196.81;;;7.77;66.71
85140;BME280;75501;52.586;13.284;2024-01-25T01:49:53;101202.78;;;7.79;67.04
85140;BME280;75501;52.586;13.284;2024-01-25T01:52:21;101177.03;;;7.61;66.94
85140;BME280;75501;52.586;13.284;2024-01-25T01:54:56;101188.16;;;7.65;66.91
85140;BME280;75501;52.586;13.284;2024-01-25T01:57:26;101193.28;;;7.71;67.11
85140;BME280;75501;52.586;13.284;2024-01-25T01:59:57;101176.22;;;7.50;67.29
85140;BME280;75501;52.586;13.284;2024-01-25T02:02:30;101176.22;;;7.56;66.89
85140;BME280;75501;52.586;13.284;2024-01-25T02:05:00;101182.19;;;7.58;67.60
85140;BME280;75501;52.586;13.284;2024-01-25T02:07:31;101215.22;;;7.70;67.49
85140;BME280;75501;52.586;13.284;2024-01-25T02:10:00;101183.81;;;7.54;67.04
85140;BME280;75501;52.586;13.284;2024-01-25T02:12:31;101177.00;;;7.51;67.18
85140;BME280;75501;52.586;13.284;2024-01-25T02:15:00;101202.47;;;7.65;67.33
85140;BME280;75501;52.586;13.284;2024-01-25T02:17:28;101182.69;;;7.55;67.50
85140;BME280;75501;52.586;13.284;2024-01-25T02:20:03;101191.09;;;7.58;67.58
85140;BME280;75501;52.586;13.284;2024-01-25T02:22:42;101199.22;;;7.58;67.75
85140;BME280;75501;52.586;13.284;2024-01-25T02:25:10;101178.38;;;7.48;67.58
85140;BME280;75501;52.586;13.284;2024-01-25T02:27:43;101188.41;;;7.63;67.65
85140;BME280;75501;52.586;13.284;2024-01-25T02:30:11;101189.50;;;7.57;66.92
85140;BME280;75501;52.586;13.284;2024-01-25T02:32:40;101201.13;;;7.53;67.23
85140;BME280;75501;52.586;13.284;2024-01-25T02:35:10;101160.75;;;7.26;67.46
85140;BME280;75501;52.586;13.284;2024-01-25T02:37:39;101196.78;;;7.57;67.65
85140;BME280;75501;52.586;13.284;2024-01-25T02:40:12;101174.28;;;7.41;66.92
85140;BME280;75501;52.586;13.284;2024-01-25T02:42:42;101149.94;;;7.41;66.94
85140;BME280;75501;52.586;13.284;2024-01-25T02:45:18;101208.41;;;7.52;67.29
85140;BME280;75501;52.586;13.284;2024-01-25T02:47:49;101206.50;;;7.47;67.73
85140;BME280;75501;52.586;13.284;2024-01-25T02:50:25;101169.94;;;7.30;67.68
85140;BME280;75501;52.586;13.284;2024-01-25T02:52:57;101170.78;;;7.40;67.89
85140;BME280;75501;52.586;13.284;2024-01-25T02:55:27;101201.66;;;7.55;67.27
85140;BME280;75501;52.586;13.284;2024-01-25T02:57:58;101165.63;;;7.34;67.47
85140;BME280;75501;52.586;13.284;2024-01-25T03:00:29;101192.16;;;7.32;66.89
85140;BME280;75501;52.586;13.284;2024-01-25T03:02:58;101182.16;;;7.32;67.23
85140;BME280;75501;52.586;13.284;2024-01-25T03:05:27;101146.94;;;7.22;67.46
85140;BME280;75501;52.586;13.284;2024-01-25T03:07:58;101193.50;;;7.44;67.36
85140;BME280;75501;52.586;13.284;2024-01-25T03:10:28;101179.44;;;7.32;67.01
85140;BME280;75501;52.586;13.284;2024-01-25T03:13:03;101204.34;;;7.55;66.95
85140;BME280;75501;52.586;13.284;2024-01-25T03:15:31;101201.13;;;7.53;66.58
85140;BME280;75501;52.586;13.284;2024-01-25T03:18:00;101192.16;;;7.37;66.89
85140;BME280;75501;52.586;13.284;2024-01-25T03:20:30;101221.16;;;7.57;66.72
85140;BME280;75501;52.586;13.284;2024-01-25T03:22:58;101223.84;;;7.51;66.14
85140;BME280;75501;52.586;13.284;2024-01-25T03:25:27;101233.06;;;7.50;66.70
85140;BME280;75501;52.586;13.284;2024-01-25T03:27:55;101228.19;;;7.53;67.17
85140;BME280;75501;52.586;13.284;2024-01-25T03:30:23;101231.69;;;7.48;66.47
85140;BME280;75501;52.586;13.284;2024-01-25T03:32:52;101227.38;;;7.52;66.61
85140;BME280;75501;52.586;13.284;2024-01-25T03:35:20;101215.16;;;7.44;66.29
85140;BME280;75501;52.586;13.284;2024-01-25T03:37:48;101227.63;;;7.40;66.28
85140;BME280;75501;52.586;13.284;2024-01-25T03:40:17;101214.91;;;7.46;66.44
85140;BME280;75501;52.586;13.284;2024-01-25T03:42:47;101227.09;;;7.48;66.52
85140;BME280;75501;52.586;13.284;2024-01-25T03:45:35;101217.09;;;7.49;65.94
85140;BME280;75501;52.586;13.284;2024-01-25T03:48:03;101221.16;;;7.51;66.49
85140;BME280;75501;52.586;13.284;2024-01-25T03:50:32;101209.25;;;7.53;66.20
85140;BME280;75501;52.586;13.284;2024-01-25T03:53:00;101211.69;;;7.54;66.10
85140;BME280;75501;52.586;13.284;2024-01-25T03:55:28;101189.22;;;7.43;66.52
85140;BME280;75501;52.586;13.284;2024-01-25T03:57:58;101208.09;;;7.33;66.36
85140;BME280;75501;52.586;13.284;2024-01-25T04:00:26;101237.13;;;7.43;66.50
85140;BME280;75501;52.586;13.284;2024-01-25T04:02:54;101230.31;;;7.35;66.14
85140;BME280;75501;52.586;13.284;2024-01-25T04:05:22;101241.97;;;7.36;66.45
85140;BME280;75501;52.586;13.284;2024-01-25T04:07:51;101216.22;;;7.28;66.99
85140;BME280;75501;52.586;13.284;2024-01-25T04:10:19;101240.31;;;7.30;66.66
85140;BME280;75501;52.586;13.284;2024-01-25T04:12:47;101241.69;;;7.32;66.56
85140;BME280;75501;52.586;13.284;2024-01-25T04:15:17;101257.13;;;7.42;66.12
85140;BME280;75501;52.586;13.284;2024-01-25T04:17:45;101260.09;;;7.35;66.58
85140;BME280;75501;52.586;13.284;2024-01-25T04:20:15;101266.31;;;7.41;65.84
85140;BME280;75501;52.586;13.284;2024-01-25T04:22:43;101282.03;;;7.44;66.31
85140;BME280;75501;52.586;13.284;2024-01-25T04:25:13;101287.72;;;7.42;66.43
85140;BME280;75501;52.586;13.284;2024-01-25T04:27:42;101279.56;;;7.37;66.68
85140;BME280;75501;52.586;13.284;2024-01-25T04:30:10;101287.69;;;7.37;67.07
85140;BME280;75501;52.586;13.284;2024-01-25T04:32:40;101273.06;;;7.33;67.16
85140;BME280;75501;52.586;13.284;2024-01-25T04:35:08;101275.78;;;7.28;66.95
85140;BME280;75501;52.586;13.284;2024-01-25T04:37:36;101295.28;;;7.35;67.27
85140;BME280;75501;52.586;13.284;2024-01-25T04:40:06;101285.00;;;7.32;67.29
85140;BME280;75501;52.586;13.284;2024-01-25T04:42:35;101287.69;;;7.32;67.46
85140;BME280;75501;52.586;13.284;2024-01-25T04:45:04;101292.03;;;7.38;67.11
85140;BME280;75501;52.586;13.284;2024-01-25T04:47:33;101287.16;;;7.35;67.28
85140;BME280;75501;52.586;13.284;2024-01-25T04:50:03;101295.53;;;7.34;67.68
85140;BME280;75501;52.586;13.284;2024-01-25T04:52:31;101290.94;;;7.29;67.37
85140;BME280;75501;52.586;13.284;2024-01-25T04:55:00;101287.13;;;7.25;67.26
85140;BME280;75501;52.586;13.284;2024-01-25T04:57:28;101301.19;;;7.22;67.45
85140;BME280;75501;52.586;13.284;2024-01-25T04:59:56;101308.53;;;7.37;67.47
85140;BME280;75501;52.586;13.284;2024-01-25T05:02:24;101295.81;;;7.32;67.32
85140;BME280;75501;52.586;13.284;2024-01-25T05:04:52;101315.81;;;7.26;67.89
85140;BME280;75501;52.586;13.284;2024-01-25T05:07:22;101313.09;;;7.21;67.70
85140;BME280;75501;52.586;13.284;2024-01-25T05:09:56;101326.34;;;7.23;67.72
85140;BME280;75501;52.586;13.284;2024-01-25T05:12:24;101331.50;;;7.24;67.56
85140;BME280;75501;52.586;13.284;2024-01-25T05:14:52;101310.97;;;7.28;67.85
85140;BME280;75501;52.586;13.284;2024-01-25T05:17:21;101324.19;;;7.25;67.72
85140;BME280;75501;52.586;13.284;2024-01-25T05:19:49;101321.50;;;7.25;67.93
85140;BME280;75501;52.586;13.284;2024-01-25T05:22:18;101333.63;;;7.17;68.09
85140;BME280;75501;52.586;13.284;2024-01-25T05:24:50;101345.03;;;7.24;67.84
85140;BME280;75501;52.586;13.284;2024-01-25T05:27:18;101335.81;;;7.20;67.92
85140;BME280;75501;52.586;13.284;2024-01-25T05:29:46;101359.88;;;7.17;67.83
85140;BME280;75501;52.586;13.284;2024-01-25T05:32:14;101343.41;;;7.23;67.51
85140;BME280;75501;52.586;13.284;2024-01-25T05:34:42;101371.84;;;7.31;67.52
85140;BME280;75501;52.586;13.284;2024-01-25T05:37:10;101352.66;;;7.32;66.81
85140;BME280;75501;52.586;13.284;2024-01-25T05:39:38;101356.69;;;7.30;67.01
85140;BME280;75501;52.586;13.284;2024-01-25T05:42:08;101376.19;;;7.32;66.18
85140;BME280;75501;52.586;13.284;2024-01-25T05:44:37;101361.03;;;7.31;66.31
85140;BME280;75501;52.586;13.284;2024-01-25T05:47:05;101366.19;;;7.32;66.03
85140;BME280;75501;52.586;13.284;2024-01-25T05:49:33;101365.09;;;7.28;65.98
85140;BME280;75501;52.586;13.284;2024-01-25T05:52:01;101381.31;;;7.28;66.44
85140;BME280;75501;52.586;13.284;2024-01-25T05:54:30;101391.81;;;7.20;66.48
85140;BME280;75501;52.586;13.284;2024-01-25T05:56:58;101379.72;;;7.32;66.13
85140;BME280;75501;52.586;13.284;2024-01-25T05:59:27;101387.84;;;7.37;66.22
85140;BME280;75501;52.586;13.284;2024-01-25T06:01:55;101412.19;;;7.32;65.60
85140;BME280;75501;52.586;13.284;2024-01-25T06:04:23;101410.31;;;7.38;65.47
85140;BME280;75501;52.586;13.284;2024-01-25T06:06:51;101413.03;;;7.38;66.13
85140;BME280;75501;52.586;13.284;2024-01-25T06:09:20;101405.69;;;7.33;65.28
85140;BME280;75501;52.586;13.284;2024-01-25T06:11:48;101430.88;;;7.34;65.85
85140;BME280;75501;52.586;13.284;2024-01-25T06:14:16;101410.56;;;7.31;65.73
85140;BME280;75501;52.586;13.284;2024-01-25T06:16:46;101420.84;;;7.29;65.75
85140;BME280;75501;52.586;13.284;2024-01-25T06:19:14;101433.84;;;7.32;66.06
85140;BME280;75501;52.586;13.284;2024-01-25T06:21:42;101441.97;;;7.32;65.69
85140;BME280;75501;52.586;13.284;2024-01-25T06:24:10;101428.97;;;7.29;65.44
85140;BME280;75501;52.586;13.284;2024-01-25T06:26:38;101429.25;;;7.33;65.66
85140;BME280;75501;52.586;13.284;2024-01-25T06:29:06;101412.97;;;7.28;65.42
85140;BME280;75501;52.586;13.284;2024-01-25T06:31:41;101438.94;;;7.24;65.98
85140;BME280;75501;52.586;13.284;2024-01-25T06:34:12;101421.94;;;7.33;65.43
85140;BME280;75501;52.586;13.284;2024-01-25T06:36:40;101445.41;;;7.23;65.47
85140;BME280;75501;52.586;13.284;2024-01-25T06:39:08;101436.22;;;7.24;65.75
85140;BME280;75501;52.586;13.284;2024-01-25T06:41:37;101444.34;;;7.24;65.54
85140;BME280;75501;52.586;13.284;2024-01-25T06:44:05;101461.16;;;7.31;65.90
85140;BME280;75501;52.586;13.284;2024-01-25T06:46:33;101458.16;;;7.27;65.54
85140;BME280;75501;52.586;13.284;2024-01-25T06:49:01;101471.75;;;7.32;65.72
85140;BME280;75501;52.586;13.284;2024-01-25T06:51:31;101466.28;;;7.27;66.07
85140;BME280;75501;52.586;13.284;2024-01-25T06:53:59;101470.94;;;7.32;65.53
85140;BME280;75501;52.586;13.284;2024-01-25T06:56:27;101477.44;;;7.36;65.27
85140;BME280;75501;52.586;13.284;2024-01-25T06:58:56;101470.03;;;7.21;66.35
85140;BME280;75501;52.586;13.284;2024-01-25T07:01:24;101480.34;;;7.24;65.55
85140;BME280;75501;52.586;13.284;2024-01-25T07:03:55;101481.41;;;7.23;65.60
85140;BME280;75501;52.586;13.284;2024-01-25T07:06:23;101495.81;;;7.29;65.57
85140;BME280;75501;52.586;13.284;2024-01-25T07:08:54;101506.34;;;7.30;65.62
85140;BME280;75501;52.586;13.284;2024-01-25T07:11:22;101493.94;;;7.34;65.09
85140;BME280;75501;52.586;13.284;2024-01-25T07:13:51;101514.53;;;7.35;64.70
85140;BME280;75501;52.586;13.284;2024-01-25T07:16:19;101505.63;;;7.40;65.93
85140;BME280;75501;52.586;13.284;2024-01-25T07:18:48;101496.34;;;7.31;65.65
85140;BME280;75501;52.586;13.284;2024-01-25T07:21:17;101510.97;;;7.30;66.60
85140;BME280;75501;52.586;13.284;2024-01-25T07:23:45;101519.41;;;7.38;65.85
85140;BME280;75501;52.586;13.284;2024-01-25T07:26:17;101528.06;;;7.35;66.60
85140;BME280;75501;52.586;13.284;2024-01-25T07:28:46;101534.00;;;7.32;66.36
85140;BME280;75501;52.586;13.284;2024-01-25T07:31:14;101541.06;;;7.38;66.38
85140;BME280;75501;52.586;13.284;2024-01-25T07:33:42;101539.72;;;7.36;66.72
85140;BME280;75501;52.586;13.284;2024-01-25T07:36:10;101550.00;;;7.39;66.69
85140;BME280;75501;52.586;13.284;2024-01-25T07:38:42;101552.72;;;7.39;66.40
85140;BME280;75501;52.586;13.284;2024-01-25T07:41:10;101550.50;;;7.31;66.44
85140;BME280;75501;52.586;13.284;2024-01-25T07:43:40;101537.13;;;7.19;66.64
85140;BME280;75501;52.586;13.284;2024-01-25T07:46:09;101555.34;;;7.29;66.99
85140;BME280;75501;52.586;13.284;2024-01-25T07:48:41;101546.41;;;7.28;66.35
85140;BME280;75501;52.586;13.284;2024-01-25T07:51:11;101524.72;;;7.23;66.11
85140;BME280;75501;52.586;13.284;2024-01-25T07:53:39;101549.59;;;7.20;66.30
85140;BME280;75501;52.586;13.284;2024-01-25T07:56:08;101554.78;;;7.27;66.13
85140;BME280;75501;52.586;13.284;2024-01-25T07:58:37;101551.53;;;7.25;66.36
85140;BME280;75501;52.586;13.284;2024-01-25T08:01:06;101565.00;;;7.20;66.94
85140;BME280;75501;52.586;13.284;2024-01-25T08:03:36;101567.09;;;7.13;66.79
85140;BME280;75501;52.586;13.284;2024-01-25T08:06:05;101559.28;;;7.16;67.02
85140;BME280;75501;52.586;13.284;2024-01-25T08:08:33;101564.69;;;7.16;66.97
85140;BME280;75501;52.586;13.284;2024-01-25T08:11:01;101585.81;;;7.14;66.73
85140;BME280;75501;52.586;13.284;2024-01-25T08:13:30;101567.78;;;7.25;66.59
85140;BME280;75501;52.586;13.284;2024-01-25T08:16:01;101575.00;;;7.19;67.09
85140;BME280;75501;52.586;13.284;2024-01-25T08:18:31;101578.00;;;7.23;67.09
85140;BME280;75501;52.586;13.284;2024-01-25T08:20:59;101586.34;;;7.16;67.21
85140;BME280;75501;52.586;13.284;2024-01-25T08:23:27;101577.69;;;7.14;67.07
85140;BME280;75501;52.586;13.284;2024-01-25T08:25:55;101598.06;;;7.22;67.40
85140;BME280;75501;52.586;13.284;2024-01-25T08:28:24;101595.88;;;7.19;66.96
85140;BME280;75501;52.586;13.284;2024-01-25T08:30:52;101607.59;;;7.29;67.13
85140;BME280;75501;52.586;13.284;2024-01-25T08:33:20;101591.06;;;7.26;66.86
85140;BME280;75501;52.586;13.284;2024-01-25T08:35:52;101600.47;;;7.18;66.74
85140;BME280;75501;52.586;13.284;2024-01-25T08:38:20;101616.50;;;7.30;66.71
85140;BME280;75501;52.586;13.284;2024-01-25T08:40:48;101621.47;;;7.38;66.84
85140;BME280;75501;52.586;13.284;2024-01-25T08:43:16;101631.84;;;7.46;66.10
85140;BME280;75501;52.586;13.284;2024-01-25T08:45:45;101624.94;;;7.33;66.71
85140;BME280;75501;52.586;13.284;2024-01-25T08:48:13;101632.56;;;7.36;66.64
85140;BME280;75501;52.586;13.284;2024-01-25T08:50:41;101637.47;;;7.39;66.54
85140;BME280;75501;52.586;13.284;2024-01-25T08:53:11;101638.75;;;7.32;67.17
85140;BME280;75501;52.586;13.284;2024-01-25T08:55:40;101655.91;;;7.42;66.53
85140;BME280;75501;52.586;13.284;2024-01-25T08:58:08;101639.06;;;7.40;66.18
85140;BME280;75501;52.586;13.284;2024-01-25T09:00:36;101645.81;;;7.38;66.56
85140;BME280;75501;52.586;13.284;2024-01-25T09:03:04;101640.09;;;7.29;67.20
85140;BME280;75501;52.586;13.284;2024-01-25T09:05:32;101653.91;;;7.33;66.55
85140;BME280;75501;52.586;13.284;2024-01-25T09:08:05;101666.50;;;7.49;66.24
85140;BME280;75501;52.586;13.284;2024-01-25T09:10:35;101664.56;;;7.44;66.15
85140;BME280;75501;52.586;13.284;2024-01-25T09:13:03;101668.38;;;7.43;66.67
85140;BME280;75501;52.586;13.284;2024-01-25T09:15:31;101674.78;;;7.37;66.90
85140;BME280;75501;52.586;13.284;2024-01-25T09:17:59;101676.22;;;7.45;66.81
85140;BME280;75501;52.586;13.284;2024-01-25T09:20:27;101684.69;;;7.54;66.59
85140;BME280;75501;52.586;13.284;2024-01-25T09:22:55;101663.88;;;7.54;66.42
85140;BME280;75501;52.586;13.284;2024-01-25T09:25:23;101688.31;;;7.37;66.94
85140;BME280;75501;52.586;13.284;2024-01-25T09:27:53;101709.00;;;7.48;66.63
85140;BME280;75501;52.586;13.284;2024-01-25T09:30:23;101691.94;;;7.48;66.53
85140;BME280;75501;52.586;13.284;2024-01-25T09:32:53;101692.72;;;7.43;67.48
85140;BME280;75501;52.586;13.284;2024-01-25T09:35:21;101708.28;;;7.31;68.23
85140;BME280;75501;52.586;13.284;2024-01-25T09:37:49;101711.06;;;7.36;67.78
85140;BME280;75501;52.586;13.284;2024-01-25T09:40:19;101719.03;;;7.48;67.67
85140;BME280;75501;52.586;13.284;2024-01-25T09:42:48;101700.66;;;7.50;67.20
85140;BME280;75501;52.586;13.284;2024-01-25T09:45:21;101712.31;;;7.56;66.95
85140;BME280;75501;52.586;13.284;2024-01-25T09:47:51;101705.09;;;7.61;66.57
85140;BME280;75501;52.586;13.284;2024-01-25T09:50:20;101722.09;;;7.57;66.40
85140;BME280;75501;52.586;13.284;2024-01-25T09:52:53;101733.13;;;7.50;67.17
85140;BME280;75501;52.586;13.284;2024-01-25T09:55:25;101740.44;;;7.49;67.14
85140;BME280;75501;52.586;13.284;2024-01-25T09:57:55;101746.00;;;7.65;66.32
85140;BME280;75501;52.586;13.284;2024-01-25T10:00:25;101739.47;;;7.61;66.40
85140;BME280;75501;52.586;13.284;2024-01-25T10:02:56;101742.31;;;7.49;66.91
85140;BME280;75501;52.586;13.284;2024-01-25T10:05:24;101744.47;;;7.47;66.83
85140;BME280;75501;52.586;13.284;2024-01-25T10:07:52;101742.38;;;7.54;66.73
85140;BME280;75501;52.586;13.284;2024-01-25T10:10:20;101741.47;;;7.43;66.58
85140;BME280;75501;52.586;13.284;2024-01-25T10:12:48;101751.88;;;7.57;66.44
85140;BME280;75501;52.586;13.284;2024-01-25T10:15:17;101754.44;;;7.68;65.80
85140;BME280;75501;52.586;13.284;2024-01-25T10:17:46;101751.53;;;7.75;65.82
85140;BME280;75501;52.586;13.284;2024-01-25T10:20:34;101762.41;;;7.53;66.13
85140;BME280;75501;52.586;13.284;2024-01-25T10:23:03;101764.47;;;7.68;66.27
85140;BME280;75501;52.586;13.284;2024-01-25T10:25:33;101745.53;;;7.73;65.85
85140;BME280;75501;52.586;13.284;2024-01-25T10:28:03;101758.47;;;7.66;66.32
85140;BME280;75501;52.586;13.284;2024-01-25T10:30:33;101758.88;;;7.79;65.42
85140;BME280;75501;52.586;13.284;2024-01-25T10:33:04;101770.47;;;7.75;65.92
85140;BME280;75501;52.586;13.284;2024-01-25T10:35:33;101761.34;;;7.54;65.64
85140;BME280;75501;52.586;13.284;2024-01-25T10:38:04;101769.19;;;7.56;65.51
85140;BME280;75501;52.586;13.284;2024-01-25T10:40:33;101769.59;;;7.69;65.16
85140;BME280;75501;52.586;13.284;2024-01-25T10:43:01;101768.47;;;7.65;65.09
85140;BME280;75501;52.586;13.284;2024-01-25T10:45:29;101764.97;;;7.65;64.63
85140;BME280;75501;52.586;13.284;2024-01-25T10:47:59;101768.28;;;7.72;64.63
85140;BME280;75501;52.586;13.284;2024-01-25T10:50:28;101767.63;;;7.86;63.59
85140;BME280;75501;52.586;13.284;2024-01-25T10:52:57;101774.88;;;7.81;63.74
85140;BME280;75501;52.586;13.284;2024-01-25T10:55:27;101792.75;;;7.82;64.55
85140;BME280;75501;52.586;13.284;2024-01-25T10:57:56;101778.19;;;7.88;64.65
85140;BME280;75501;52.586;13.284;2024-01-25T11:00:24;101782.56;;;7.94;64.36
85140;BME280;75501;52.586;13.284;2024-01-25T11:02:53;101796.38;;;7.92;63.45
85140;BME280;75501;52.586;13.284;2024-01-25T11:05:23;101796.09;;;7.89;64.49
85140;BME280;75501;52.586;13.284;2024-01-25T11:07:53;101794.84;;;8.01;64.01
85140;BME280;75501;52.586;13.284;2024-01-25T11:10:25;101794.22;;;8.26;63.38
85140;BME280;75501;52.586;13.284;2024-01-25T11:12:56;101793.94;;;8.23;62.49
85140;BME280;75501;52.586;13.284;2024-01-25T11:15:30;101799.63;;;8.21;62.62
85140;BME280;75501;52.586;13.284;2024-01-25T11:18:00;101790.84;;;8.09;63.68
85140;BME280;75501;52.586;13.284;2024-01-25T11:20:30;101783.22;;;8.06;63.38
85140;BME280;75501;52.586;13.284;2024-01-25T11:23:02;101776.97;;;8.00;64.01
85140;BME280;75501;52.586;13.284;2024-01-25T11:25:33;101784.50;;;7.98;63.56
85140;BME280;75501;52.586;13.284;2024-01-25T11:28:05;101785.94;;;8.06;63.97
85140;BME280;75501;52.586;13.284;2024-01-25T11:30:34;101788.44;;;8.13;63.15
85140;BME280;75501;52.586;13.284;2024-01-25T11:33:04;101785.41;;;8.09;63.26
85140;BME280;75501;52.586;13.284;2024-01-25T11:35:33;101787.91;;;8.16;62.41
85140;BME280;75501;52.586;13.284;2024-01-25T11:38:03;101783.47;;;8.31;62.09
85140;BME280;75501;52.586;13.284;2024-01-25T11:40:31;101796.41;;;8.24;61.94
85140;BME280;75501;52.586;13.284;2024-01-25T11:43:05;101807.31;;;8.29;61.49
85140;BME280;75501;52.586;13.284;2024-01-25T11:45:38;101791.91;;;8.08;61.92
85140;BME280;75501;52.586;13.284;2024-01-25T11:48:10;101800.94;;;8.19;61.10
85140;BME280;75501;52.586;13.284;2024-01-25T11:50:38;101801.88;;;8.29;60.55
85140;BME280;75501;52.586;13.284;2024-01-25T11:53:08;101810.00;;;8.29;60.44
85140;BME280;75501;52.586;13.284;2024-01-25T11:55:36;101794.06;;;8.06;62.20
85140;BME280;75501;52.586;13.284;2024-01-25T11:58:05;101803.63;;;8.14;61.53
85140;BME280;75501;52.586;13.284;2024-01-25T12:00:34;101806.97;;;8.26;60.58
85140;BME280;75501;52.586;13.284;2024-01-25T12:03:03;101810.69;;;8.15;61.03
85140;BME280;75501;52.586;13.284;2024-01-25T12:05:32;101805.53;;;8.13;61.33
85140;BME280;75501;52.586;13.284;2024-01-25T12:08:00;101811.13;;;8.33;60.40
85140;BME280;75501;52.586;13.284;2024-01-25T12:10:30;101812.38;;;8.21;60.82
85140;BME280;75501;52.586;13.284;2024-01-25T12:12:58;101811.97;;;8.07;60.91
85140;BME280;75501;52.586;13.284;2024-01-25T12:15:27;101801.69;;;8.09;60.56
85140;BME280;75501;52.586;13.284;2024-01-25T12:17:55;101819.69;;;8.20;60.92
85140;BME280;75501;52.586;13.284;2024-01-25T12:20:24;101815.59;;;8.18;61.19
85140;BME280;75501;52.586;13.284;2024-01-25T12:22:52;101819.16;;;8.23;61.50
85140;BME280;75501;52.586;13.284;2024-01-25T12:25:20;101816.44;;;8.23;61.20
85140;BME280;75501;52.586;13.284;2024-01-25T12:27:50;101821.00;;;8.44;61.03
85140;BME280;75501;52.586;13.284;2024-01-25T12:30:18;101822.75;;;8.61;60.34
85140;BME280;75501;52.586;13.284;2024-01-25T12:32:48;101822.78;;;8.66;60.23
85140;BME280;75501;52.586;13.284;2024-01-25T12:35:16;101828.66;;;8.58;60.55
85140;BME280;75501;52.586;13.284;2024-01-25T12:37:45;101831.38;;;8.58;60.33
85140;BME280;75501;52.586;13.284;2024-01-25T12:40:13;101828.94;;;8.56;60.36
85140;BME280;75501;52.586;13.284;2024-01-25T12:42:42;101825.81;;;8.37;61.19
85140;BME280;75501;52.586;13.284;2024-01-25T12:45:12;101836.97;;;8.41;61.58
85140;BME280;75501;52.586;13.284;2024-01-25T12:47:40;101832.91;;;8.43;61.81
85140;BME280;75501;52.586;13.284;2024-01-25T12:50:08;101826.06;;;8.73;60.88
85140;BME280;75501;52.586;13.284;2024-01-25T12:52:37;101825.06;;;8.84;60.36
85140;BME280;75501;52.586;13.284;2024-01-25T12:55:06;101822.53;;;8.67;60.14
85140;BME280;75501;52.586;13.284;2024-01-25T12:57:34;101823.00;;;8.59;60.98
85140;BME280;75501;52.586;13.284;2024-01-25T13:00:06;101819.47;;;8.59;61.22
85140;BME280;75501;52.586;13.284;2024-01-25T13:02:36;101821.09;;;8.60;62.48